createdAt,value
2022-11-10T00:06:14.558Z,2.55
2022-11-10T00:13:24.475Z,2.28
2022-11-10T00:26:56.628Z,1.88
2022-11-10T00:48:48.940Z,1.77
2022-11-10T00:56:02.442Z,1.92
2022-11-10T01:03:03.984Z,1.90
2022-11-10T01:09:56.319Z,1.88
2022-11-10T01:16:34.095Z,2.05
2022-11-10T01:23:02.459Z,2.20
2022-11-10T01:30:29.038Z,2.17
2022-11-10T01:37:00.212Z,1.98
2022-11-10T01:43:37.125Z,2.70
2022-11-10T01:57:42.695Z,2.50
2022-11-10T02:11:26.135Z,2.95
2022-11-10T02:18:03.139Z,3.25
2022-11-10T02:24:58.630Z,2.72
2022-11-10T02:32:25.455Z,3.00
2022-11-10T02:45:56.474Z,2.45
2022-11-10T02:52:41.751Z,3.03
2022-11-10T02:59:09.748Z,2.88
2022-11-10T03:05:49.824Z,3.05
2022-11-10T03:12:21.456Z,2.65
2022-11-10T03:18:50.336Z,2.60
2022-11-10T03:33:16.367Z,2.35
2022-11-10T03:47:19.454Z,2.22
2022-11-10T03:54:02.549Z,2.90
2022-11-10T04:14:45.252Z,3.03
2022-11-10T04:28:55.044Z,2.78
2022-11-10T04:42:37.858Z,2.78
2022-11-10T04:49:03.595Z,2.95
2022-11-10T04:55:59.540Z,3.78
2022-11-10T05:02:28.858Z,2.88
2022-11-10T05:10:09.560Z,2.88
2022-11-10T05:16:06.834Z,3.08
2022-11-10T05:22:27.695Z,3.70
2022-11-10T05:28:51.705Z,3.13
2022-11-10T05:35:12.882Z,3.78
2022-11-10T05:41:40.215Z,3.00
2022-11-10T05:54:26.569Z,3.50
2022-11-10T06:00:53.136Z,3.30
2022-11-10T06:07:23.091Z,2.72
2022-11-10T06:13:44.216Z,3.55
2022-11-10T06:20:08.081Z,3.10
2022-11-10T06:26:28.822Z,3.80
2022-11-10T06:32:56.667Z,3.50
2022-11-10T06:46:01.914Z,3.55
2022-11-10T06:52:23.108Z,3.45
2022-11-10T06:58:44.040Z,3.35
2022-11-10T07:05:04.647Z,3.30
2022-11-10T07:11:26.906Z,3.60
2022-11-10T07:17:50.263Z,4.10
2022-11-10T07:24:11.236Z,3.72
2022-11-10T07:30:35.762Z,3.38
2022-11-10T07:36:56.755Z,4.05
2022-11-10T07:43:17.210Z,4.10
2022-11-10T07:49:37.614Z,3.75
2022-11-10T07:55:59.418Z,3.92
2022-11-10T08:02:23.511Z,3.33
2022-11-10T08:08:47.164Z,2.90
2022-11-10T08:15:08.031Z,3.22
2022-11-10T08:21:28.273Z,3.40
2022-11-10T08:27:49.130Z,3.15
2022-11-10T08:34:09.649Z,3.53
2022-11-10T08:40:30.485Z,3.72
2022-11-10T08:46:52.257Z,3.17
2022-11-10T08:53:18.160Z,3.42
2022-11-10T08:59:38.863Z,3.40
2022-11-10T09:05:59.537Z,3.15
2022-11-10T09:12:20.128Z,3.28
2022-11-10T09:18:40.629Z,3.78
2022-11-10T09:25:07.404Z,3.38
2022-11-10T09:31:54.830Z,3.35
2022-11-10T09:38:20.449Z,3.55
2022-11-10T09:44:53.759Z,3.42
2022-11-10T09:51:27.655Z,3.50
2022-11-10T09:57:56.394Z,3.30
2022-11-10T10:04:44.731Z,3.72
2022-11-10T10:11:35.477Z,3.60
2022-11-10T10:18:24.131Z,3.35
2022-11-10T10:38:42.797Z,3.47
2022-11-10T10:45:23.553Z,3.25
2022-11-10T10:51:50.960Z,2.90
2022-11-10T10:58:24.404Z,3.37
2022-11-10T11:04:47.779Z,3.65
2022-11-10T11:11:10.698Z,3.50
2022-11-10T11:17:31.373Z,3.65
2022-11-10T11:24:02.544Z,3.40
2022-11-10T11:30:25.038Z,3.13
2022-11-10T11:37:18.124Z,3.95
2022-11-10T11:43:49.417Z,3.55
2022-11-10T11:50:38.009Z,3.28
2022-11-10T11:57:35.781Z,3.33
2022-11-10T12:04:18.188Z,3.80
2022-11-10T12:10:54.131Z,3.65
2022-11-10T12:17:43.807Z,3.70
2022-11-10T12:24:35.188Z,3.53
2022-11-10T12:31:01.903Z,3.13
2022-11-10T12:37:34.035Z,3.15
2022-11-10T12:44:00.634Z,3.40
2022-11-10T12:50:44.412Z,3.92
2022-11-10T12:57:18.919Z,3.55
2022-11-10T13:03:52.122Z,3.03
2022-11-10T13:10:19.141Z,3.50
2022-11-10T13:16:42.273Z,3.20
2022-11-10T13:23:43.397Z,3.60
2022-11-10T13:30:04.891Z,3.17
2022-11-10T13:36:42.889Z,3.50
2022-11-10T13:43:03.392Z,3.17
2022-11-10T13:49:55.768Z,2.90
2022-11-10T13:56:52.852Z,3.05
2022-11-10T14:03:45.313Z,3.75
2022-11-10T14:10:13.802Z,3.10
2022-11-10T14:16:41.590Z,3.63
2022-11-10T14:23:05.469Z,3.50
2022-11-10T14:29:38.589Z,3.33
2022-11-10T14:36:06.207Z,3.42
2022-11-10T14:42:29.937Z,3.50
2022-11-10T14:48:58.367Z,2.95
2022-11-10T14:55:25.559Z,3.47
2022-11-10T15:02:10.223Z,3.85
2022-11-10T15:08:30.571Z,3.15
2022-11-10T15:14:59.034Z,3.53
2022-11-10T15:27:40.590Z,3.35
2022-11-10T15:34:04.049Z,2.75
2022-11-10T15:40:42.939Z,2.90
2022-11-10T15:47:11.201Z,3.03
2022-11-10T15:53:34.116Z,3.35
2022-11-10T15:59:54.624Z,2.83
2022-11-10T16:06:16.124Z,3.50
2022-11-10T16:12:36.661Z,4.75
2022-11-10T16:18:57.615Z,3.03
2022-11-10T16:25:25.223Z,2.70
2022-11-10T16:31:50.839Z,3.45
2022-11-10T16:38:25.042Z,2.80
2022-11-10T16:44:45.992Z,3.00
2022-11-10T16:51:06.610Z,3.00
2022-11-10T16:57:27.665Z,2.47
2022-11-10T17:03:52.242Z,2.97
2022-11-10T17:10:17.601Z,2.67
2022-11-10T17:16:40.400Z,2.65
2022-11-10T17:23:02.951Z,2.80
2022-11-10T17:29:24.056Z,3.28
2022-11-10T17:35:50.289Z,3.70
2022-11-10T17:42:12.846Z,3.70
2022-11-10T17:48:33.606Z,3.15
2022-11-10T17:54:54.017Z,4.55
2022-11-10T18:01:19.617Z,3.42
2022-11-10T18:07:40.220Z,3.22
2022-11-10T18:14:01.873Z,4.13
2022-11-10T18:20:44.986Z,3.72
2022-11-10T18:27:10.104Z,3.33
2022-11-10T18:33:49.395Z,3.63
2022-11-10T18:47:12.083Z,3.53
2022-11-10T18:54:18.795Z,3.72
2022-11-10T19:01:49.324Z,3.90
2022-11-10T19:08:17.292Z,4.18
2022-11-10T19:14:43.680Z,3.88
2022-11-10T19:21:08.555Z,3.50
2022-11-10T19:27:47.059Z,3.90
2022-11-10T19:34:09.551Z,3.70
2022-11-10T19:40:47.670Z,3.50
2022-11-10T19:47:18.125Z,3.78
2022-11-10T19:54:00.225Z,3.60
2022-11-10T20:00:27.539Z,3.45
2022-11-10T20:07:33.697Z,4.03
2022-11-10T20:14:01.861Z,3.90
2022-11-10T20:20:22.394Z,3.22
2022-11-10T20:26:42.673Z,3.38
2022-11-10T20:33:05.206Z,3.15
2022-11-10T20:39:25.727Z,3.53
2022-11-10T20:45:46.527Z,3.00
2022-11-10T20:52:06.759Z,3.50
2022-11-10T20:58:28.265Z,4.07
2022-11-10T21:04:49.166Z,4.13
2022-11-10T21:11:10.761Z,4.30
2022-11-10T21:17:31.171Z,4.75
2022-11-10T21:23:57.117Z,4.30
2022-11-10T21:30:22.955Z,3.60
2022-11-10T21:36:43.330Z,4.22
2022-11-10T21:43:03.962Z,4.00
2022-11-10T21:49:24.353Z,4.82
2022-11-10T21:55:44.867Z,4.40
2022-11-10T22:02:06.446Z,3.88
2022-11-10T22:08:26.870Z,4.47
2022-11-10T22:15:05.889Z,4.20
2022-11-10T22:21:26.198Z,5.18
2022-11-10T22:27:46.740Z,4.07
2022-11-10T22:34:07.482Z,3.90
2022-11-10T22:40:46.569Z,3.60
2022-11-10T22:47:07.104Z,4.03
2022-11-10T22:53:27.727Z,4.00
2022-11-10T22:59:48.167Z,3.85
2022-11-10T23:06:09.035Z,3.88
2022-11-10T23:12:29.324Z,3.67
2022-11-10T23:18:51.034Z,3.47
2022-11-10T23:25:14.592Z,3.47
2022-11-10T23:31:34.894Z,3.33
2022-11-10T23:37:55.309Z,3.60
2022-11-10T23:44:15.841Z,3.33
2022-11-10T23:50:36.440Z,3.13
2022-11-10T23:56:56.944Z,3.40
